sensor_id;sensor_type;location;lat;lon;timestamp;pressure;altitude;pressure_sealevel;temperature;humidity
50859;BME280;36826;47.514;19.056;2023-01-31T00:02:24;99740.63;;;10.10;62.62
50859;BME280;36826;47.514;19.056;2023-01-31T00:04:49;99733.75;;;9.98;62.52
50859;BME280;36826;47.514;19.056;2023-01-31T00:07:15;99736.16;;;9.91;62.99
50859;BME280;36826;47.514;19.056;2023-01-31T00:09:40;99742.44;;;10.20;61.94
50859;BME280;36826;47.514;19.056;2023-01-31T00:12:05;99718.13;;;9.44;63.20
50859;BME280;36826;47.514;19.056;2023-01-31T00:14:30;99733.63;;;9.80;61.90
50859;BME280;36826;47.514;19.056;2023-01-31T00:16:56;99731.34;;;9.75;62.89
50859;BME280;36826;47.514;19.056;2023-01-31T00:19:21;99731.94;;;9.79;62.36
50859;BME280;36826;47.514;19.056;2023-01-31T00:21:46;99735.56;;;10.07;63.66
50859;BME280;36826;47.514;19.056;2023-01-31T00:24:12;99732.00;;;10.17;63.73
50859;BME280;36826;47.514;19.056;2023-01-31T00:26:38;99732.44;;;10.22;63.08
50859;BME280;36826;47.514;19.056;2023-01-31T00:29:03;99695.56;;;10.06;64.35
50859;BME280;36826;47.514;19.056;2023-01-31T00:31:29;99723.69;;;10.10;65.67
50859;BME280;36826;47.514;19.056;2023-01-31T00:33:55;99686.06;;;9.44;66.99
50859;BME280;36826;47.514;19.056;2023-01-31T00:36:25;99693.06;;;9.65;65.62
50859;BME280;36826;47.514;19.056;2023-01-31T00:38:54;99672.69;;;9.44;67.16
50859;BME280;36826;47.514;19.056;2023-01-31T00:41:20;99674.25;;;9.27;66.74
50859;BME280;36826;47.514;19.056;2023-01-31T00:43:46;99674.66;;;9.42;66.42
50859;BME280;36826;47.514;19.056;2023-01-31T00:46:12;99687.75;;;9.45;65.62
50859;BME280;36826;47.514;19.056;2023-01-31T00:48:37;99695.59;;;9.17;65.95
50859;BME280;36826;47.514;19.056;2023-01-31T00:51:02;99685.31;;;9.62;64.63
50859;BME280;36826;47.514;19.056;2023-01-31T00:53:28;99697.66;;;10.02;63.67
50859;BME280;36826;47.514;19.056;2023-01-31T00:55:54;99696.44;;;9.87;63.54
50859;BME280;36826;47.514;19.056;2023-01-31T00:58:20;99685.44;;;10.00;63.58
50859;BME280;36826;47.514;19.056;2023-01-31T01:00:46;99686.91;;;9.55;63.24
50859;BME280;36826;47.514;19.056;2023-01-31T01:03:12;99681.22;;;9.97;61.98
50859;BME280;36826;47.514;19.056;2023-01-31T01:05:37;99689.13;;;9.69;62.91
50859;BME280;36826;47.514;19.056;2023-01-31T01:08:03;99685.19;;;9.73;62.17
50859;BME280;36826;47.514;19.056;2023-01-31T01:10:28;99690.25;;;9.86;61.15
50859;BME280;36826;47.514;19.056;2023-01-31T01:12:53;99691.13;;;9.38;61.72
50859;BME280;36826;47.514;19.056;2023-01-31T01:15:19;99697.31;;;9.48;61.63
50859;BME280;36826;47.514;19.056;2023-01-31T01:17:44;99674.78;;;9.11;61.44
50859;BME280;36826;47.514;19.056;2023-01-31T01:20:10;99687.47;;;9.48;61.05
50859;BME280;36826;47.514;19.056;2023-01-31T01:22:35;99679.59;;;9.57;61.12
50859;BME280;36826;47.514;19.056;2023-01-31T01:25:01;99684.66;;;9.50;61.05
50859;BME280;36826;47.514;19.056;2023-01-31T01:27:27;99679.28;;;9.79;59.78
50859;BME280;36826;47.514;19.056;2023-01-31T01:29:52;99688.00;;;9.13;60.78
50859;BME280;36826;47.514;19.056;2023-01-31T01:32:18;99660.41;;;8.93;61.68
50859;BME280;36826;47.514;19.056;2023-01-31T01:34:43;99669.31;;;9.23;61.27
50859;BME280;36826;47.514;19.056;2023-01-31T01:37:08;99693.50;;;9.50;60.98
50859;BME280;36826;47.514;19.056;2023-01-31T01:39:39;99697.28;;;9.77;59.96
50859;BME280;36826;47.514;19.056;2023-01-31T01:42:04;99709.97;;;9.26;60.37
50859;BME280;36826;47.514;19.056;2023-01-31T01:49:38;99724.91;;;9.48;60.46
50859;BME280;36826;47.514;19.056;2023-01-31T01:52:04;99711.38;;;9.20;60.67
50859;BME280;36826;47.514;19.056;2023-01-31T01:54:35;99726.00;;;9.36;60.62
50859;BME280;36826;47.514;19.056;2023-01-31T01:57:02;99740.78;;;9.79;60.18
50859;BME280;36826;47.514;19.056;2023-01-31T02:01:57;99754.56;;;9.94;59.17
50859;BME280;36826;47.514;19.056;2023-01-31T02:04:23;99752.47;;;9.29;60.85
50859;BME280;36826;47.514;19.056;2023-01-31T02:06:49;99755.16;;;9.59;59.97
50859;BME280;36826;47.514;19.056;2023-01-31T02:09:25;99750.06;;;9.46;60.11
50859;BME280;36826;47.514;19.056;2023-01-31T02:11:54;99765.16;;;9.57;60.18
50859;BME280;36826;47.514;19.056;2023-01-31T02:14:19;99774.66;;;9.20;60.90
50859;BME280;36826;47.514;19.056;2023-01-31T02:16:45;99773.00;;;9.39;59.99
50859;BME280;36826;47.514;19.056;2023-01-31T02:19:34;99772.13;;;9.18;60.42
50859;BME280;36826;47.514;19.056;2023-01-31T02:37:47;99775.78;;;9.17;60.71
50859;BME280;36826;47.514;19.056;2023-01-31T02:40:23;99778.38;;;9.48;60.13
50859;BME280;36826;47.514;19.056;2023-01-31T02:45:21;99779.31;;;9.28;60.13
50859;BME280;36826;47.514;19.056;2023-01-31T02:47:58;99782.69;;;9.30;59.96
50859;BME280;36826;47.514;19.056;2023-01-31T02:50:48;99772.59;;;9.43;59.55
50859;BME280;36826;47.514;19.056;2023-01-31T02:53:30;99780.63;;;9.73;59.34
50859;BME280;36826;47.514;19.056;2023-01-31T02:55:57;99785.13;;;9.52;59.58
50859;BME280;36826;47.514;19.056;2023-01-31T03:01:27;99802.84;;;9.54;59.67
50859;BME280;36826;47.514;19.056;2023-01-31T03:03:56;99798.34;;;9.64;58.38
50859;BME280;36826;47.514;19.056;2023-01-31T03:09:05;99820.56;;;9.35;59.16
50859;BME280;36826;47.514;19.056;2023-01-31T03:11:39;99816.50;;;9.00;60.16
50859;BME280;36826;47.514;19.056;2023-01-31T03:16:42;99825.06;;;9.44;59.19
50859;BME280;36826;47.514;19.056;2023-01-31T03:19:40;99829.72;;;9.42;59.29
50859;BME280;36826;47.514;19.056;2023-01-31T03:22:12;99831.88;;;9.68;58.29
50859;BME280;36826;47.514;19.056;2023-01-31T03:24:45;99817.97;;;9.24;59.21
50859;BME280;36826;47.514;19.056;2023-01-31T03:27:12;99849.28;;;9.52;58.37
50859;BME280;36826;47.514;19.056;2023-01-31T03:29:39;99823.09;;;9.56;58.64
50859;BME280;36826;47.514;19.056;2023-01-31T03:32:09;99836.53;;;10.05;57.59
50859;BME280;36826;47.514;19.056;2023-01-31T03:34:35;99849.56;;;9.49;58.83
50859;BME280;36826;47.514;19.056;2023-01-31T03:42:03;99846.66;;;9.92;57.52
50859;BME280;36826;47.514;19.056;2023-01-31T03:47:04;99856.38;;;9.73;57.79
50859;BME280;36826;47.514;19.056;2023-01-31T03:49:32;99844.66;;;9.55;58.07
50859;BME280;36826;47.514;19.056;2023-01-31T03:52:05;99873.53;;;8.89;59.24
50859;BME280;36826;47.514;19.056;2023-01-31T03:54:33;99884.63;;;9.15;59.44
50859;BME280;36826;47.514;19.056;2023-01-31T03:57:43;99873.09;;;9.56;58.70
50859;BME280;36826;47.514;19.056;2023-01-31T03:59:50;99872.72;;;8.98;59.73
50859;BME280;36826;47.514;19.056;2023-01-31T04:02:18;99878.47;;;8.94;60.05
50859;BME280;36826;47.514;19.056;2023-01-31T04:04:49;99872.78;;;9.49;58.99
50859;BME280;36826;47.514;19.056;2023-01-31T04:07:17;99876.25;;;9.30;58.91
50859;BME280;36826;47.514;19.056;2023-01-31T04:09:42;99874.53;;;8.98;59.17
50859;BME280;36826;47.514;19.056;2023-01-31T04:12:08;99896.84;;;9.49;59.13
50859;BME280;36826;47.514;19.056;2023-01-31T04:14:36;99891.97;;;9.74;58.68
50859;BME280;36826;47.514;19.056;2023-01-31T04:17:01;99898.25;;;9.12;60.69
50859;BME280;36826;47.514;19.056;2023-01-31T04:19:26;99906.56;;;8.88;60.61
50859;BME280;36826;47.514;19.056;2023-01-31T04:21:51;99910.97;;;8.99;62.69
50859;BME280;36826;47.514;19.056;2023-01-31T04:24:17;99911.66;;;8.70;62.41
50859;BME280;36826;47.514;19.056;2023-01-31T04:26:42;99920.66;;;8.69;63.35
50859;BME280;36826;47.514;19.056;2023-01-31T04:29:07;99920.69;;;9.00;63.91
50859;BME280;36826;47.514;19.056;2023-01-31T04:31:33;99925.72;;;8.18;64.02
50859;BME280;36826;47.514;19.056;2023-01-31T04:33:58;99936.53;;;8.38;65.43
50859;BME280;36826;47.514;19.056;2023-01-31T04:36:24;99933.94;;;8.80;64.94
50859;BME280;36826;47.514;19.056;2023-01-31T04:38:49;99933.94;;;8.80;65.77
50859;BME280;36826;47.514;19.056;2023-01-31T04:41:14;99935.91;;;8.45;65.41
50859;BME280;36826;47.514;19.056;2023-01-31T04:43:40;99935.47;;;8.29;66.13
50859;BME280;36826;47.514;19.056;2023-01-31T04:46:05;99931.81;;;8.30;66.94
50859;BME280;36826;47.514;19.056;2023-01-31T04:48:30;99949.53;;;8.64;67.10
50859;BME280;36826;47.514;19.056;2023-01-31T04:50:56;99945.34;;;8.17;67.87
50859;BME280;36826;47.514;19.056;2023-01-31T04:53:21;99943.28;;;8.21;67.95
50859;BME280;36826;47.514;19.056;2023-01-31T04:55:46;99943.97;;;8.67;68.63
50859;BME280;36826;47.514;19.056;2023-01-31T04:58:12;99968.25;;;8.85;67.85
50859;BME280;36826;47.514;19.056;2023-01-31T05:00:37;99968.50;;;9.03;68.27
50859;BME280;36826;47.514;19.056;2023-01-31T05:03:02;99976.44;;;9.14;67.90
50859;BME280;36826;47.514;19.056;2023-01-31T05:05:28;99970.28;;;8.93;67.50
50859;BME280;36826;47.514;19.056;2023-01-31T05:07:53;99977.38;;;9.03;67.74
50859;BME280;36826;47.514;19.056;2023-01-31T05:10:18;99990.63;;;9.67;66.54
50859;BME280;36826;47.514;19.056;2023-01-31T05:12:43;99992.22;;;9.17;70.30
50859;BME280;36826;47.514;19.056;2023-01-31T05:15:10;99973.03;;;8.81;72.09
50859;BME280;36826;47.514;19.056;2023-01-31T05:17:36;99981.69;;;8.95;73.78
50859;BME280;36826;47.514;19.056;2023-01-31T05:20:01;99988.78;;;8.63;74.19
50859;BME280;36826;47.514;19.056;2023-01-31T05:22:27;99978.13;;;8.40;75.47
50859;BME280;36826;47.514;19.056;2023-01-31T05:24:53;99970.41;;;8.70;75.92
50859;BME280;36826;47.514;19.056;2023-01-31T05:27:18;99977.72;;;8.24;76.35
50859;BME280;36826;47.514;19.056;2023-01-31T05:29:44;99980.69;;;8.42;77.08
50859;BME280;36826;47.514;19.056;2023-01-31T05:32:09;99971.09;;;8.72;76.78
50859;BME280;36826;47.514;19.056;2023-01-31T05:34:35;99978.47;;;8.47;75.68
50859;BME280;36826;47.514;19.056;2023-01-31T05:37:01;99977.09;;;8.32;76.09
50859;BME280;36826;47.514;19.056;2023-01-31T05:39:27;99975.66;;;8.16;75.24
50859;BME280;36826;47.514;19.056;2023-01-31T05:41:52;99983.44;;;8.63;75.43
50859;BME280;36826;47.514;19.056;2023-01-31T05:44:18;99985.78;;;8.34;74.28
50859;BME280;36826;47.514;19.056;2023-01-31T05:46:43;99977.09;;;8.85;74.03
50859;BME280;36826;47.514;19.056;2023-01-31T05:49:09;99984.22;;;7.87;74.14
50859;BME280;36826;47.514;19.056;2023-01-31T05:51:34;99967.16;;;8.22;74.52
50859;BME280;36826;47.514;19.056;2023-01-31T05:54:00;99990.97;;;8.47;72.91
50859;BME280;36826;47.514;19.056;2023-01-31T05:56:25;99982.75;;;8.06;72.92
50859;BME280;36826;47.514;19.056;2023-01-31T05:58:51;99965.09;;;8.14;72.37
50859;BME280;36826;47.514;19.056;2023-01-31T06:01:20;99979.66;;;8.66;72.54
50859;BME280;36826;47.514;19.056;2023-01-31T06:03:46;99971.50;;;8.23;71.05
50859;BME280;36826;47.514;19.056;2023-01-31T06:06:12;99968.84;;;8.23;70.71
50859;BME280;36826;47.514;19.056;2023-01-31T06:08:37;99971.44;;;8.02;71.09
50859;BME280;36826;47.514;19.056;2023-01-31T06:11:03;99974.22;;;8.56;71.54
50859;BME280;36826;47.514;19.056;2023-01-31T06:13:29;99973.25;;;8.57;69.82
50859;BME280;36826;47.514;19.056;2023-01-31T06:15:54;99980.31;;;8.79;68.99
50859;BME280;36826;47.514;19.056;2023-01-31T06:18:19;99983.31;;;8.86;68.79
50859;BME280;36826;47.514;19.056;2023-01-31T06:20:46;99992.94;;;8.77;69.05
50859;BME280;36826;47.514;19.056;2023-01-31T06:23:11;99983.03;;;8.68;68.28
50859;BME280;36826;47.514;19.056;2023-01-31T06:25:36;99988.41;;;8.89;68.43
50859;BME280;36826;47.514;19.056;2023-01-31T06:28:02;99995.84;;;8.74;67.50
50859;BME280;36826;47.514;19.056;2023-01-31T06:30:28;100002.41;;;8.81;66.85
50859;BME280;36826;47.514;19.056;2023-01-31T06:32:53;99999.34;;;9.07;66.17
50859;BME280;36826;47.514;19.056;2023-01-31T06:35:19;100011.97;;;9.05;66.80
50859;BME280;36826;47.514;19.056;2023-01-31T06:37:44;100002.53;;;9.01;65.87
50859;BME280;36826;47.514;19.056;2023-01-31T06:40:10;100013.78;;;9.78;65.01
50859;BME280;36826;47.514;19.056;2023-01-31T06:42:36;100007.63;;;12.20;58.40
50859;BME280;36826;47.514;19.056;2023-01-31T06:45:01;100005.81;;;14.74;55.33
50859;BME280;36826;47.514;19.056;2023-01-31T06:47:26;99987.06;;;14.48;51.45
50859;BME280;36826;47.514;19.056;2023-01-31T06:49:52;99998.84;;;16.34;49.63
50859;BME280;36826;47.514;19.056;2023-01-31T06:52:17;100006.31;;;17.55;47.09
50859;BME280;36826;47.514;19.056;2023-01-31T06:54:42;100010.88;;;17.39;44.54
50859;BME280;36826;47.514;19.056;2023-01-31T06:57:08;100015.38;;;17.77;45.29
50859;BME280;36826;47.514;19.056;2023-01-31T06:59:33;100026.00;;;18.82;45.12
50859;BME280;36826;47.514;19.056;2023-01-31T07:01:58;100018.16;;;18.29;41.82
50859;BME280;36826;47.514;19.056;2023-01-31T07:04:24;100028.34;;;17.52;43.13
50859;BME280;36826;47.514;19.056;2023-01-31T07:06:49;100025.38;;;20.35;43.15
50859;BME280;36826;47.514;19.056;2023-01-31T07:09:14;100037.88;;;19.81;42.21
50859;BME280;36826;47.514;19.056;2023-01-31T07:11:40;100034.31;;;20.22;39.13
50859;BME280;36826;47.514;19.056;2023-01-31T07:14:05;100049.53;;;18.38;41.21
50859;BME280;36826;47.514;19.056;2023-01-31T07:16:30;100028.16;;;19.93;40.97
50859;BME280;36826;47.514;19.056;2023-01-31T07:18:56;100042.94;;;20.26;40.85
50859;BME280;36826;47.514;19.056;2023-01-31T07:21:21;100041.44;;;22.45;38.14
50859;BME280;36826;47.514;19.056;2023-01-31T07:23:47;100045.00;;;22.32;36.18
50859;BME280;36826;47.514;19.056;2023-01-31T07:26:13;100063.78;;;20.74;36.91
50859;BME280;36826;47.514;19.056;2023-01-31T07:28:38;100067.91;;;23.09;35.86
50859;BME280;36826;47.514;19.056;2023-01-31T07:31:04;100072.91;;;21.28;36.02
50859;BME280;36826;47.514;19.056;2023-01-31T07:33:30;100084.22;;;21.79;36.32
50859;BME280;36826;47.514;19.056;2023-01-31T07:35:55;100087.13;;;23.53;34.71
50859;BME280;36826;47.514;19.056;2023-01-31T07:38:20;100103.16;;;22.33;36.34
50859;BME280;36826;47.514;19.056;2023-01-31T07:40:46;100114.34;;;23.09;33.62
50859;BME280;36826;47.514;19.056;2023-01-31T07:43:11;100105.25;;;22.31;34.79
50859;BME280;36826;47.514;19.056;2023-01-31T07:45:37;100101.69;;;20.69;35.97
50859;BME280;36826;47.514;19.056;2023-01-31T07:48:02;100103.19;;;22.26;34.27
50859;BME280;36826;47.514;19.056;2023-01-31T07:50:28;100095.13;;;24.17;33.02
50859;BME280;36826;47.514;19.056;2023-01-31T07:52:53;100104.53;;;22.62;31.93
50859;BME280;36826;47.514;19.056;2023-01-31T07:55:21;100114.59;;;24.09;31.25
50859;BME280;36826;47.514;19.056;2023-01-31T07:57:46;100124.47;;;24.96;30.51
50859;BME280;36826;47.514;19.056;2023-01-31T08:00:11;100108.56;;;25.17;29.50
50859;BME280;36826;47.514;19.056;2023-01-31T08:02:57;100127.09;;;24.72;29.04
50859;BME280;36826;47.514;19.056;2023-01-31T08:05:43;100127.00;;;27.05;27.65
50859;BME280;36826;47.514;19.056;2023-01-31T08:08:09;100135.34;;;22.11;30.61
50859;BME280;36826;47.514;19.056;2023-01-31T08:10:34;100141.69;;;22.63;30.17
50859;BME280;36826;47.514;19.056;2023-01-31T08:13:00;100130.16;;;24.08;28.99
50859;BME280;36826;47.514;19.056;2023-01-31T08:15:25;100150.06;;;24.90;28.96
50859;BME280;36826;47.514;19.056;2023-01-31T08:17:50;100147.66;;;25.24;27.56
50859;BME280;36826;47.514;19.056;2023-01-31T08:20:16;100149.78;;;25.64;27.68
50859;BME280;36826;47.514;19.056;2023-01-31T08:22:42;100153.75;;;26.40;26.94
50859;BME280;36826;47.514;19.056;2023-01-31T08:25:08;100169.00;;;24.17;28.15
50859;BME280;36826;47.514;19.056;2023-01-31T08:27:33;100162.66;;;23.47;28.87
50859;BME280;36826;47.514;19.056;2023-01-31T08:29:59;100176.56;;;22.55;29.71
50859;BME280;36826;47.514;19.056;2023-01-31T08:32:24;100179.97;;;22.50;30.35
50859;BME280;36826;47.514;19.056;2023-01-31T08:34:49;100193.88;;;24.34;28.47
50859;BME280;36826;47.514;19.056;2023-01-31T08:37:15;100198.66;;;24.94;27.83
50859;BME280;36826;47.514;19.056;2023-01-31T08:39:40;100207.72;;;24.39;28.56
50859;BME280;36826;47.514;19.056;2023-01-31T08:42:05;100210.91;;;25.10;27.94
50859;BME280;36826;47.514;19.056;2023-01-31T08:44:30;100219.56;;;23.25;29.75
50859;BME280;36826;47.514;19.056;2023-01-31T08:46:56;100213.31;;;23.11;29.94
50859;BME280;36826;47.514;19.056;2023-01-31T08:49:24;100236.44;;;22.22;31.53
50859;BME280;36826;47.514;19.056;2023-01-31T08:51:49;100220.94;;;21.89;31.39
50859;BME280;36826;47.514;19.056;2023-01-31T08:54:15;100244.56;;;20.93;32.35
50859;BME280;36826;47.514;19.056;2023-01-31T08:56:40;100254.38;;;20.81;32.53
50859;BME280;36826;47.514;19.056;2023-01-31T08:59:05;100245.47;;;20.02;32.39
50859;BME280;36826;47.514;19.056;2023-01-31T09:01:31;100240.06;;;20.08;33.15
50859;BME280;36826;47.514;19.056;2023-01-31T09:03:56;100255.09;;;21.79;31.61
50859;BME280;36826;47.514;19.056;2023-01-31T09:06:22;100250.69;;;23.17;30.41
50859;BME280;36826;47.514;19.056;2023-01-31T09:08:49;100257.59;;;22.41;30.72
50859;BME280;36826;47.514;19.056;2023-01-31T09:11:14;100255.50;;;21.69;31.15
50859;BME280;36826;47.514;19.056;2023-01-31T09:13:43;100265.19;;;22.25;31.40
50859;BME280;36826;47.514;19.056;2023-01-31T09:16:09;100265.59;;;22.35;31.58
50859;BME280;36826;47.514;19.056;2023-01-31T09:18:35;100254.94;;;20.41;32.43
50859;BME280;36826;47.514;19.056;2023-01-31T09:21:04;100268.19;;;20.79;32.48
50859;BME280;36826;47.514;19.056;2023-01-31T09:23:30;100272.88;;;19.85;33.59
50859;BME280;36826;47.514;19.056;2023-01-31T09:25:55;100266.91;;;20.47;32.68
50859;BME280;36826;47.514;19.056;2023-01-31T09:28:23;100269.09;;;21.49;32.37
50859;BME280;36826;47.514;19.056;2023-01-31T09:30:48;100279.66;;;22.59;31.39
50859;BME280;36826;47.514;19.056;2023-01-31T09:33:14;100277.59;;;21.19;31.73
50859;BME280;36826;47.514;19.056;2023-01-31T09:35:39;100287.44;;;18.89;34.26
50859;BME280;36826;47.514;19.056;2023-01-31T09:38:05;100283.97;;;20.34;32.97
50859;BME280;36826;47.514;19.056;2023-01-31T09:40:30;100271.72;;;20.16;32.50
50859;BME280;36826;47.514;19.056;2023-01-31T09:42:56;100289.09;;;20.79;33.29
50859;BME280;36826;47.514;19.056;2023-01-31T09:45:31;100288.56;;;21.45;32.23
50859;BME280;36826;47.514;19.056;2023-01-31T09:47:58;100289.13;;;21.21;31.46
50859;BME280;36826;47.514;19.056;2023-01-31T09:52:50;100298.09;;;21.14;32.16
50859;BME280;36826;47.514;19.056;2023-01-31T09:55:16;100289.84;;;20.09;33.38
50859;BME280;36826;47.514;19.056;2023-01-31T10:00:17;100295.59;;;19.56;33.17
50859;BME280;36826;47.514;19.056;2023-01-31T10:05:22;100302.06;;;17.73;36.64
50859;BME280;36826;47.514;19.056;2023-01-31T10:12:54;100307.81;;;22.13;32.37
50859;BME280;36826;47.514;19.056;2023-01-31T10:15:27;100307.75;;;19.23;33.98
50859;BME280;36826;47.514;19.056;2023-01-31T10:17:55;100304.84;;;20.55;33.18
50859;BME280;36826;47.514;19.056;2023-01-31T10:22:53;100291.47;;;19.60;33.40
50859;BME280;36826;47.514;19.056;2023-01-31T10:25:25;100306.69;;;18.34;34.99
50859;BME280;36826;47.514;19.056;2023-01-31T10:27:55;100285.13;;;16.60;37.31
50859;BME280;36826;47.514;19.056;2023-01-31T10:30:26;100289.91;;;17.06;36.74
50859;BME280;36826;47.514;19.056;2023-01-31T10:32:59;100289.09;;;16.00;37.50
50859;BME280;36826;47.514;19.056;2023-01-31T10:35:28;100294.50;;;16.16;37.87
50859;BME280;36826;47.514;19.056;2023-01-31T10:37:59;100285.50;;;15.66;38.76
50859;BME280;36826;47.514;19.056;2023-01-31T10:42:56;100281.31;;;15.80;37.96
50859;BME280;36826;47.514;19.056;2023-01-31T10:45:25;100283.63;;;17.14;36.90
50859;BME280;36826;47.514;19.056;2023-01-31T10:53:26;100286.97;;;16.60;37.18
50859;BME280;36826;47.514;19.056;2023-01-31T10:56:03;100271.31;;;14.96;38.95
50859;BME280;36826;47.514;19.056;2023-01-31T10:58:29;100270.19;;;15.07;39.55
50859;BME280;36826;47.514;19.056;2023-01-31T11:00:55;100269.94;;;14.57;39.16
50859;BME280;36826;47.514;19.056;2023-01-31T11:03:20;100267.84;;;14.51;39.78
50859;BME280;36826;47.514;19.056;2023-01-31T11:05:50;100280.00;;;14.82;39.43
50859;BME280;36826;47.514;19.056;2023-01-31T11:08:19;100270.03;;;14.48;39.72
50859;BME280;36826;47.514;19.056;2023-01-31T11:10:50;100258.44;;;14.82;39.54
50859;BME280;36826;47.514;19.056;2023-01-31T11:13:19;100255.25;;;14.52;39.88
50859;BME280;36826;47.514;19.056;2023-01-31T11:15:44;100256.53;;;13.95;40.07
50859;BME280;36826;47.514;19.056;2023-01-31T11:18:54;100253.06;;;14.55;39.96
50859;BME280;36826;47.514;19.056;2023-01-31T11:21:01;100262.41;;;14.17;39.44
50859;BME280;36826;47.514;19.056;2023-01-31T11:23:28;100247.53;;;13.86;40.90
50859;BME280;36826;47.514;19.056;2023-01-31T11:25:54;100238.50;;;13.05;41.08
50859;BME280;36826;47.514;19.056;2023-01-31T11:28:41;100241.94;;;12.97;40.55
50859;BME280;36826;47.514;19.056;2023-01-31T11:31:07;100253.09;;;13.85;40.21
50859;BME280;36826;47.514;19.056;2023-01-31T11:33:42;100241.78;;;13.63;39.14
50859;BME280;36826;47.514;19.056;2023-01-31T11:36:12;100249.94;;;13.71;39.34
50859;BME280;36826;47.514;19.056;2023-01-31T11:38:38;100245.97;;;14.28;38.71
50859;BME280;36826;47.514;19.056;2023-01-31T11:41:46;100234.28;;;14.37;38.35
50859;BME280;36826;47.514;19.056;2023-01-31T11:46:58;100235.69;;;15.69;37.87
50859;BME280;36826;47.514;19.056;2023-01-31T11:49:35;100232.38;;;16.00;36.56
50859;BME280;36826;47.514;19.056;2023-01-31T11:52:13;100236.16;;;14.71;38.22
50859;BME280;36826;47.514;19.056;2023-01-31T11:54:40;100226.84;;;15.09;36.67
50859;BME280;36826;47.514;19.056;2023-01-31T11:57:12;100229.38;;;14.67;37.50
50859;BME280;36826;47.514;19.056;2023-01-31T11:59:38;100238.06;;;14.00;37.99
50859;BME280;36826;47.514;19.056;2023-01-31T12:02:03;100237.19;;;13.73;38.21
50859;BME280;36826;47.514;19.056;2023-01-31T12:04:30;100237.31;;;14.42;37.13
50859;BME280;36826;47.514;19.056;2023-01-31T12:07:01;100245.84;;;14.30;38.11
50859;BME280;36826;47.514;19.056;2023-01-31T12:09:29;100246.47;;;14.23;37.38
50859;BME280;36826;47.514;19.056;2023-01-31T12:11:56;100234.84;;;14.84;37.22
50859;BME280;36826;47.514;19.056;2023-01-31T12:14:37;100231.00;;;14.25;37.60
50859;BME280;36826;47.514;19.056;2023-01-31T12:17:03;100223.81;;;14.34;38.07
50859;BME280;36826;47.514;19.056;2023-01-31T12:19:38;100229.84;;;14.89;37.96
50859;BME280;36826;47.514;19.056;2023-01-31T12:22:11;100228.88;;;14.37;38.24
50859;BME280;36826;47.514;19.056;2023-01-31T12:27:33;100228.81;;;14.90;38.31
50859;BME280;36826;47.514;19.056;2023-01-31T12:49:06;100240.66;;;13.47;38.91
50859;BME280;36826;47.514;19.056;2023-01-31T12:51:41;100248.84;;;13.64;38.39
50859;BME280;36826;47.514;19.056;2023-01-31T12:56:42;100239.72;;;14.01;39.77
50859;BME280;36826;47.514;19.056;2023-01-31T12:59:19;100256.19;;;14.16;39.09
50859;BME280;36826;47.514;19.056;2023-01-31T13:01:52;100255.69;;;14.47;39.39
50859;BME280;36826;47.514;19.056;2023-01-31T13:04:41;100258.63;;;14.88;38.71
50859;BME280;36826;47.514;19.056;2023-01-31T13:07:24;100265.47;;;13.77;40.62
50859;BME280;36826;47.514;19.056;2023-01-31T13:09:52;100273.75;;;14.02;39.94
50859;BME280;36826;47.514;19.056;2023-01-31T13:12:22;100282.31;;;12.50;41.23
50859;BME280;36826;47.514;19.056;2023-01-31T13:14:59;100282.44;;;12.96;40.94
50859;BME280;36826;47.514;19.056;2023-01-31T13:17:28;100285.00;;;12.87;41.69
50859;BME280;36826;47.514;19.056;2023-01-31T13:19:56;100286.47;;;13.28;41.29
50859;BME280;36826;47.514;19.056;2023-01-31T13:24:49;100279.78;;;13.60;40.85
50859;BME280;36826;47.514;19.056;2023-01-31T13:27:31;100290.69;;;14.39;40.71
50859;BME280;36826;47.514;19.056;2023-01-31T13:30:01;100289.47;;;14.86;39.85
50859;BME280;36826;47.514;19.056;2023-01-31T13:32:29;100302.88;;;14.69;40.35
50859;BME280;36826;47.514;19.056;2023-01-31T13:37:36;100301.84;;;15.56;39.48
50859;BME280;36826;47.514;19.056;2023-01-31T13:42:28;100305.78;;;15.19;39.94
50859;BME280;36826;47.514;19.056;2023-01-31T13:44:54;100310.19;;;15.20;39.61
50859;BME280;36826;47.514;19.056;2023-01-31T13:49:58;100304.00;;;14.93;39.75
50859;BME280;36826;47.514;19.056;2023-01-31T13:54:53;100301.19;;;15.62;38.35
50859;BME280;36826;47.514;19.056;2023-01-31T13:57:31;100306.09;;;15.67;38.07
50859;BME280;36826;47.514;19.056;2023-01-31T14:02:58;100310.50;;;14.56;39.74
50859;BME280;36826;47.514;19.056;2023-01-31T14:10:53;100314.47;;;14.43;39.95
50859;BME280;36826;47.514;19.056;2023-01-31T14:13:22;100319.38;;;14.48;39.50
50859;BME280;36826;47.514;19.056;2023-01-31T14:15:50;100325.75;;;14.21;40.42
50859;BME280;36826;47.514;19.056;2023-01-31T14:18:35;100333.38;;;14.25;41.05
50859;BME280;36826;47.514;19.056;2023-01-31T14:23:46;100341.28;;;14.27;40.76
50859;BME280;36826;47.514;19.056;2023-01-31T14:28:55;100336.38;;;14.04;40.90
50859;BME280;36826;47.514;19.056;2023-01-31T14:31:20;100334.84;;;13.47;42.40
50859;BME280;36826;47.514;19.056;2023-01-31T14:33:47;100330.31;;;13.38;43.35
50859;BME280;36826;47.514;19.056;2023-01-31T14:47:26;100338.13;;;13.41;44.20
50859;BME280;36826;47.514;19.056;2023-01-31T14:55:19;100346.06;;;14.33;44.31
50859;BME280;36826;47.514;19.056;2023-01-31T14:57:48;100336.53;;;14.21;44.90
50859;BME280;36826;47.514;19.056;2023-01-31T15:00:18;100329.47;;;13.84;44.90
50859;BME280;36826;47.514;19.056;2023-01-31T15:02:52;100338.19;;;13.49;45.99
50859;BME280;36826;47.514;19.056;2023-01-31T15:05:24;100332.63;;;13.61;45.32
50859;BME280;36826;47.514;19.056;2023-01-31T15:15:57;100335.34;;;12.85;46.28